Time;durP1;ratioP1;P1;durP2;ratioP2;P2;SDS_P1;SDS_P2;PMS_P1;PMS_P2;Temp;Humidity;BMP_temperature;BMP_pressure;BME280_temperature;BME280_humidity;BME280_pressure;Samples;Min_cycle;Max_cycle;Signal;HPM_P1;HPM_P2
2023/03/16 00:00:36;;;;;;;;;;;;;;;3.62;65.84;99621.22;6123276;23;19923;-72
2023/03/16 00:03:02;;;;;;;;;;;;;;;3.69;65.93;99614.44;6121632;23;19917;-73
2023/03/16 00:05:39;;;;;;;;;;;;;;;3.69;65.81;99605.03;6123292;23;19924;-72
2023/03/16 00:08:07;;;;;;;;;;;;;;;3.73;65.69;99608.50;6096504;23;20055;-73
2023/03/16 00:10:35;;;;;;;;;;;;;;;3.80;65.86;99601.75;6121667;23;20008;-72
2023/03/16 00:13:08;;;;;;;;;;;;;;;3.94;65.95;99605.41;6121444;23;19912;-75
2023/03/16 00:15:44;;;;;;;;;;;;;;;4.02;66.10;99605.53;6123638;23;20007;-75
2023/03/16 00:18:10;;;;;;;;;;;;;;;4.13;65.80;99610.81;6120342;23;19920;-73
2023/03/16 00:20:40;;;;;;;;;;;;;;;4.20;65.93;99602.31;6122677;23;20703;-73
2023/03/16 00:23:11;;;;;;;;;;;;;;;4.19;65.80;99604.06;6121820;23;19932;-73
2023/03/16 00:25:40;;;;;;;;;;;;;;;4.11;65.55;99600.50;6122544;23;19916;-72
2023/03/16 00:28:06;;;;;;;;;;;;;;;4.09;65.43;99604.75;6122671;23;19916;-73
2023/03/16 00:35:09;;;;;;;;;;;;;;;4.10;65.65;99598.75;6093284;23;19924;-75
2023/03/16 00:37:56;;;;;;;;;;;;;;;4.24;65.76;99603.25;6123489;23;19917;-74
2023/03/16 00:40:55;;;;;;;;;;;;;;;3.96;65.75;99566.81;6120964;23;19917;-74
2023/03/16 00:44:27;;;;;;;;;;;;;;;4.32;65.94;99611.94;6101318;23;19917;-73
2023/03/16 00:50:24;;;;;;;;;;;;;;;4.23;65.69;99607.53;6123712;23;19972;-75
2023/03/16 00:53:36;;;;;;;;;;;;;;;4.27;66.00;99614.44;6048616;23;20328;-74
2023/03/16 00:56:30;;;;;;;;;;;;;;;4.24;65.90;99605.81;6087216;23;19921;-75
2023/03/16 00:59:05;;;;;;;;;;;;;;;4.15;66.14;99611.72;6096092;23;19921;-73
2023/03/16 01:05:29;;;;;;;;;;;;;;;4.26;66.16;99610.16;6122330;23;19984;-74
2023/03/16 01:08:21;;;;;;;;;;;;;;;4.17;65.88;99605.72;6123683;23;19964;-72
2023/03/16 01:11:55;;;;;;;;;;;;;;;4.14;66.04;99610.84;6122646;23;19963;-74
2023/03/16 01:14:36;;;;;;;;;;;;;;;4.07;66.22;99603.88;6122165;23;19917;-76
2023/03/16 01:17:07;;;;;;;;;;;;;;;3.99;65.60;99603.75;6097615;23;19917;-74
2023/03/16 01:19:57;;;;;;;;;;;;;;;4.00;66.41;99604.63;6123274;23;19913;-72
2023/03/16 01:22:33;;;;;;;;;;;;;;;3.79;66.47;99557.13;6118180;23;20317;-74
2023/03/16 01:25:10;;;;;;;;;;;;;;;4.07;66.14;99606.47;6097909;23;19932;-74
2023/03/16 01:28:34;;;;;;;;;;;;;;;3.96;65.84;99605.44;6063463;23;19953;-74
2023/03/16 01:32:08;;;;;;;;;;;;;;;3.96;66.24;99601.16;6007306;23;20369;-73
2023/03/16 01:34:45;;;;;;;;;;;;;;;3.99;66.49;99597.75;6037730;23;19929;-74
2023/03/16 01:49:07;;;;;;;;;;;;;;;3.91;66.29;99615.66;6081357;23;19948;-75
2023/03/16 01:51:41;;;;;;;;;;;;;;;3.87;65.77;99608.72;6044224;23;19918;-75
2023/03/16 01:54:21;;;;;;;;;;;;;;;3.85;66.05;99606.16;6065792;23;20006;-75
2023/03/16 02:00:44;;;;;;;;;;;;;;;4.03;66.67;99590.09;6038274;23;20199;-74
2023/03/16 02:03:38;;;;;;;;;;;;;;;4.15;65.88;99597.13;6092766;23;19923;-73
2023/03/16 02:06:22;;;;;;;;;;;;;;;4.18;65.71;99598.88;6097010;23;19924;-70
2023/03/16 02:09:00;;;;;;;;;;;;;;;4.11;66.00;99597.06;6096207;23;19909;-75
2023/03/16 02:11:34;;;;;;;;;;;;;;;4.10;65.74;99606.47;6096400;23;19913;-73
2023/03/16 02:14:25;;;;;;;;;;;;;;;4.10;66.25;99603.91;6092397;23;19940;-74
2023/03/16 02:16:58;;;;;;;;;;;;;;;4.12;65.86;99606.53;6096316;23;19909;-74
2023/03/16 02:19:49;;;;;;;;;;;;;;;4.09;65.69;99607.31;6096163;23;19932;-73
2023/03/16 02:22:16;;;;;;;;;;;;;;;4.19;66.19;99604.06;6094900;23;19912;-74
2023/03/16 02:24:42;;;;;;;;;;;;;;;4.07;65.12;99591.00;6119776;23;20392;-74
2023/03/16 02:27:21;;;;;;;;;;;;;;;3.99;65.23;99592.59;6095923;23;20055;-74
2023/03/16 02:30:03;;;;;;;;;;;;;;;4.02;65.89;99603.81;6116997;23;19956;-71
2023/03/16 02:32:50;;;;;;;;;;;;;;;4.09;65.69;99599.59;6095619;23;19916;-73
2023/03/16 02:35:21;;;;;;;;;;;;;;;4.02;65.40;99597.81;6121758;23;19916;-73
2023/03/16 02:37:55;;;;;;;;;;;;;;;4.00;65.68;99592.59;6118507;23;19919;-73
2023/03/16 02:40:44;;;;;;;;;;;;;;;4.08;65.64;99582.44;6121607;23;20303;-73
2023/03/16 02:43:20;;;;;;;;;;;;;;;4.12;66.21;99583.34;6048666;23;19923;-70
2023/03/16 02:46:02;;;;;;;;;;;;;;;4.21;65.49;99576.59;6049897;23;19921;-71
2023/03/16 02:48:57;;;;;;;;;;;;;;;4.03;64.97;99573.78;6095804;23;19999;-71
2023/03/16 02:51:29;;;;;;;;;;;;;;;4.14;65.48;99577.34;6095111;23;19923;-73
2023/03/16 02:54:02;;;;;;;;;;;;;;;4.07;65.20;99573.84;6094781;23;19935;-73
2023/03/16 02:56:35;;;;;;;;;;;;;;;4.02;64.80;99579.78;6098436;23;20325;-71
2023/03/16 02:59:02;;;;;;;;;;;;;;;4.03;65.44;99576.34;6098195;23;20376;-71
2023/03/16 03:01:30;;;;;;;;;;;;;;;4.03;65.40;99581.50;6072859;23;19963;-74
2023/03/16 03:04:04;;;;;;;;;;;;;;;4.06;65.63;99584.97;6124589;23;19932;-72
2023/03/16 03:06:34;;;;;;;;;;;;;;;4.12;66.35;99581.63;6123150;23;19917;-72
2023/03/16 03:09:03;;;;;;;;;;;;;;;4.17;65.20;99589.44;6119892;23;19917;-71
2023/03/16 03:11:50;;;;;;;;;;;;;;;4.10;65.38;99583.31;6095923;23;20238;-72
2023/03/16 03:14:46;;;;;;;;;;;;;;;4.14;65.41;99582.50;6097256;23;19917;-74
2023/03/16 03:17:28;;;;;;;;;;;;;;;4.22;64.87;99583.50;6098244;23;19924;-73
2023/03/16 03:20:12;;;;;;;;;;;;;;;4.34;65.31;99587.06;6098419;23;19923;-73
2023/03/16 03:22:39;;;;;;;;;;;;;;;4.28;64.53;99582.69;6097688;23;19999;-71
2023/03/16 03:25:11;;;;;;;;;;;;;;;4.16;64.14;99562.78;6101385;23;19945;-73
2023/03/16 03:27:44;;;;;;;;;;;;;;;4.22;65.52;99550.00;6074780;23;19921;-73
2023/03/16 03:30:15;;;;;;;;;;;;;;;4.30;65.09;99554.41;6122738;23;19917;-73
2023/03/16 03:32:43;;;;;;;;;;;;;;;4.30;65.70;99562.13;6097517;23;19917;-72
2023/03/16 03:35:17;;;;;;;;;;;;;;;4.31;64.71;99558.69;6073551;23;19916;-71
2023/03/16 03:38:20;;;;;;;;;;;;;;;4.31;65.53;99558.69;6100050;23;19933;-72
2023/03/16 03:40:52;;;;;;;;;;;;;;;4.41;64.73;99573.41;6073591;23;19917;-73
2023/03/16 03:43:20;;;;;;;;;;;;;;;4.27;64.94;99569.81;6098385;23;19943;-75
2023/03/16 03:45:56;;;;;;;;;;;;;;;4.26;65.15;99563.78;6120535;23;19916;-73
2023/03/16 03:51:50;;;;;;;;;;;;;;;4.19;64.07;99578.28;6097361;23;19928;-70
2023/03/16 03:54:56;;;;;;;;;;;;;;;4.18;64.69;99571.41;6125642;23;19920;-71
2023/03/16 03:57:49;;;;;;;;;;;;;;;4.12;64.46;99575.63;6122023;23;19917;-75
2023/03/16 04:00:26;;;;;;;;;;;;;;;4.09;64.77;99578.16;6098092;23;19912;-72
2023/03/16 04:03:06;;;;;;;;;;;;;;;4.00;64.76;99581.47;6122269;23;19948;-74
2023/03/16 04:05:43;;;;;;;;;;;;;;;4.07;64.38;99588.44;6097712;23;19923;-73
2023/03/16 04:08:29;;;;;;;;;;;;;;;4.10;65.20;99590.19;6123255;23;19927;-73
2023/03/16 04:11:02;;;;;;;;;;;;;;;4.06;64.76;99592.72;6120361;23;19917;-75
2023/03/16 04:14:21;;;;;;;;;;;;;;;4.01;64.58;99583.19;6101054;23;19995;-74
2023/03/16 04:16:58;;;;;;;;;;;;;;;3.97;64.51;99573.69;6123099;23;19916;-74
2023/03/16 04:20:03;;;;;;;;;;;;;;;3.97;64.17;99571.13;6072835;23;19923;-74
2023/03/16 04:22:57;;;;;;;;;;;;;;;3.93;64.83;99575.38;6088445;23;19916;-74
2023/03/16 04:25:29;;;;;;;;;;;;;;;3.96;65.06;99574.53;6123403;23;20003;-73
2023/03/16 04:28:17;;;;;;;;;;;;;;;4.00;65.21;99555.72;6080602;23;19916;-74
2023/03/16 04:30:56;;;;;;;;;;;;;;;4.09;64.79;99554.97;6119937;23;19921;-72
2023/03/16 04:33:47;;;;;;;;;;;;;;;4.11;65.19;99558.44;6120737;23;19925;-74
2023/03/16 04:36:24;;;;;;;;;;;;;;;4.05;64.63;99562.66;6072005;23;20257;-76
2023/03/16 04:39:44;;;;;;;;;;;;;;;4.02;64.73;99580.63;6111783;23;19924;-74
2023/03/16 04:42:17;;;;;;;;;;;;;;;3.94;64.75;99583.94;6121154;23;19965;-75
2023/03/16 04:44:46;;;;;;;;;;;;;;;3.88;64.46;99588.16;6077180;23;19923;-76
2023/03/16 04:47:43;;;;;;;;;;;;;;;3.86;64.89;99594.13;6123546;23;20017;-75
2023/03/16 04:50:14;;;;;;;;;;;;;;;3.75;65.02;99599.09;6064712;23;19917;-74
2023/03/16 04:52:56;;;;;;;;;;;;;;;3.79;64.17;99606.03;6094187;23;19917;-74
2023/03/16 04:55:33;;;;;;;;;;;;;;;3.73;64.63;99611.09;6090596;23;19909;-76
2023/03/16 04:58:05;;;;;;;;;;;;;;;3.77;65.16;99618.88;6067268;23;19972;-74
2023/03/16 05:04:33;;;;;;;;;;;;;;;3.89;65.52;99594.19;6093860;23;19917;-73
2023/03/16 05:07:13;;;;;;;;;;;;;;;3.92;65.12;99607.94;6068053;23;19921;-72
2023/03/16 05:09:46;;;;;;;;;;;;;;;3.91;65.24;99613.09;6093308;23;19972;-73
2023/03/16 05:12:24;;;;;;;;;;;;;;;3.87;65.06;99609.59;6070859;23;19972;-73
2023/03/16 05:14:56;;;;;;;;;;;;;;;3.70;65.08;99609.34;6092067;23;19927;-75
2023/03/16 05:17:34;;;;;;;;;;;;;;;3.56;65.55;99603.97;6043263;23;20269;-74
2023/03/16 05:20:10;;;;;;;;;;;;;;;3.62;65.28;99608.34;6093217;23;19921;-71
2023/03/16 05:22:46;;;;;;;;;;;;;;;3.64;65.81;99605.81;6067915;23;20003;-75
2023/03/16 05:25:21;;;;;;;;;;;;;;;3.67;65.26;99606.72;6069202;23;19921;-75
2023/03/16 05:27:55;;;;;;;;;;;;;;;3.53;64.91;99601.34;6043809;23;19917;-75
2023/03/16 05:31:12;;;;;;;;;;;;;;;3.47;65.25;99596.97;6092374;23;19941;-75
2023/03/16 05:34:06;;;;;;;;;;;;;;;3.52;66.10;99609.03;6094595;23;19925;-73
2023/03/16 05:36:35;;;;;;;;;;;;;;;3.70;66.69;99608.47;6065781;23;19917;-78
2023/03/16 05:39:07;;;;;;;;;;;;;;;3.75;65.93;99601.69;6093955;23;19943;-74
2023/03/16 05:41:40;;;;;;;;;;;;;;;3.87;66.63;99603.59;6091099;23;19916;-73
2023/03/16 05:44:23;;;;;;;;;;;;;;;4.07;66.66;99609.03;6067983;23;19928;-74
2023/03/16 05:47:11;;;;;;;;;;;;;;;4.09;66.71;99607.31;6093522;23;19940;-74
2023/03/16 05:49:49;;;;;;;;;;;;;;;4.17;66.63;99600.59;6044164;23;19921;-74
2023/03/16 05:52:48;;;;;;;;;;;;;;;4.22;66.22;99593.78;6097137;23;19917;-74
2023/03/16 05:55:58;;;;;;;;;;;;;;;4.21;66.56;99601.47;6094979;23;19972;-72
2023/03/16 05:58:38;;;;;;;;;;;;;;;4.21;65.57;99604.94;6093314;23;19944;-75
2023/03/16 06:04:47;;;;;;;;;;;;;;;4.45;66.45;99621.56;6094081;23;19971;-76
2023/03/16 06:08:15;;;;;;;;;;;;;;;4.43;65.61;99623.25;6110737;23;19983;-74
2023/03/16 06:10:50;;;;;;;;;;;;;;;4.42;66.77;99626.69;6096794;23;20328;-74
2023/03/16 06:13:22;;;;;;;;;;;;;;;4.40;65.81;99628.38;6121530;23;20241;-74
2023/03/16 06:15:52;;;;;;;;;;;;;;;4.38;65.98;99630.06;6119527;23;19934;-72
2023/03/16 06:18:20;;;;;;;;;;;;;;;4.34;65.88;99633.44;6097355;23;20316;-73
2023/03/16 06:20:52;;;;;;;;;;;;;;;4.35;65.89;99635.16;6123387;23;19909;-73
2023/03/16 06:23:47;;;;;;;;;;;;;;;4.30;66.22;99634.25;6122865;23;19963;-75
2023/03/16 06:26:25;;;;;;;;;;;;;;;4.27;66.32;99635.06;6097668;23;19944;-72
2023/03/16 06:29:05;;;;;;;;;;;;;;;4.21;65.44;99624.66;6055359;23;19924;-73
2023/03/16 06:31:39;;;;;;;;;;;;;;;4.30;66.86;99631.69;6072101;23;19980;-75
2023/03/16 06:34:18;;;;;;;;;;;;;;;4.45;66.18;99629.31;6124469;23;19921;-75
2023/03/16 06:36:47;;;;;;;;;;;;;;;4.59;66.63;99641.50;6126339;23;20349;-72
2023/03/16 06:40:32;;;;;;;;;;;;;;;4.57;66.37;99636.34;6035795;23;20005;-75
2023/03/16 06:43:03;;;;;;;;;;;;;;;4.60;66.73;99640.66;6028831;23;19924;-76
2023/03/16 06:45:31;;;;;;;;;;;;;;;4.48;65.64;99647.38;6006031;23;20340;-73
2023/03/16 06:48:11;;;;;;;;;;;;;;;4.48;66.28;99641.34;6029387;23;19918;-75
2023/03/16 06:55:27;;;;;;;;;;;;;;;4.67;66.23;99642.47;6032564;23;19999;-73
2023/03/16 06:58:52;;;;;;;;;;;;;;;4.81;66.25;99634.91;6029974;23;20315;-75
2023/03/16 07:02:31;;;;;;;;;;;;;;;5.02;65.74;99636.84;6031324;23;19952;-75
2023/03/16 07:08:51;;;;;;;;;;;;;;;5.37;66.22;99630.31;6059148;23;19922;-75
2023/03/16 07:15:35;;;;;;;;;;;;;;;5.89;66.01;99629.91;6059159;23;19940;-76
2023/03/16 07:23:17;;;;;;;;;;;;;;;5.85;65.04;99623.88;6061749;23;19917;-75
2023/03/16 07:35:17;;;;;;;;;;;;;;;6.07;64.98;99623.19;6060483;23;19996;-77
2023/03/16 07:38:40;;;;;;;;;;;;;;;6.13;64.71;99621.50;6073697;23;19956;-75
2023/03/16 07:42:30;;;;;;;;;;;;;;;5.76;64.86;99625.50;6033960;23;19981;-75
2023/03/16 08:00:38;;;;;;;;;;;;;;;6.63;64.82;99608.81;6113797;23;19907;-76
2023/03/16 08:03:38;;;;;;;;;;;;;;;6.71;63.85;99608.88;6094414;23;20029;-77
2023/03/16 08:06:08;;;;;;;;;;;;;;;6.71;64.59;99598.53;6082051;23;19923;-79
2023/03/16 08:12:56;;;;;;;;;;;;;;;6.95;64.18;99609.81;6088698;23;20049;-77
2023/03/16 08:15:49;;;;;;;;;;;;;;;6.72;63.63;99559.75;6089936;23;19920;-74
2023/03/16 08:22:58;;;;;;;;;;;;;;;6.93;63.15;99620.16;6058063;23;19915;-78
2023/03/16 08:25:28;;;;;;;;;;;;;;;7.01;63.47;99612.41;6034122;23;19933;-76
2023/03/16 08:28:04;;;;;;;;;;;;;;;7.13;63.50;99603.81;6054874;23;20294;-74
2023/03/16 08:30:57;;;;;;;;;;;;;;;7.18;63.17;99612.44;6032452;23;19972;-77
2023/03/16 08:34:12;;;;;;;;;;;;;;;7.16;62.04;99621.94;6056841;23;19965;-74
2023/03/16 08:36:47;;;;;;;;;;;;;;;7.00;62.83;99621.91;6057157;23;19988;-76
2023/03/16 08:39:35;;;;;;;;;;;;;;;6.86;62.77;99618.38;6055838;23;19941;-76
2023/03/16 08:42:37;;;;;;;;;;;;;;;6.70;63.25;99622.66;6022543;23;20093;-75
2023/03/16 08:46:05;;;;;;;;;;;;;;;6.56;62.27;99623.44;6043733;23;20293;-76
2023/03/16 08:49:08;;;;;;;;;;;;;;;6.45;62.84;99625.13;6049893;23;19921;-75
2023/03/16 08:52:18;;;;;;;;;;;;;;;6.59;63.05;99625.22;6088184;23;19927;-74
2023/03/16 08:58:56;;;;;;;;;;;;;;;6.59;62.66;99632.97;6077185;23;19988;-73
2023/03/16 09:02:16;;;;;;;;;;;;;;;6.45;63.15;99631.16;6082797;23;20052;-74
2023/03/16 09:06:12;;;;;;;;;;;;;;;6.53;62.99;99628.59;6021090;23;19924;-74
2023/03/16 09:08:52;;;;;;;;;;;;;;;6.43;62.80;99576.00;6036743;23;19917;-76
2023/03/16 09:15:39;;;;;;;;;;;;;;;6.84;62.79;99628.75;5997267;23;20014;-77
2023/03/16 09:19:32;;;;;;;;;;;;;;;6.72;62.76;99631.31;5935503;23;19924;-75
2023/03/16 09:26:21;;;;;;;;;;;;;;;6.97;62.81;99619.31;6031351;23;19922;-76
2023/03/16 09:29:59;;;;;;;;;;;;;;;6.94;62.17;99627.06;5972879;24;20012;-73
2023/03/16 09:42:20;;;;;;;;;;;;;;;7.17;62.73;99619.34;5955313;24;20289;-76
2023/03/16 09:45:10;;;;;;;;;;;;;;;7.38;62.83;99615.94;5971162;24;20231;-75
2023/03/16 09:48:59;;;;;;;;;;;;;;;7.52;62.39;99615.94;5971016;24;19973;-77
2023/03/16 10:00:36;;;;;;;;;;;;;;;8.07;62.02;99609.00;5976201;23;19925;-75
2023/03/16 10:03:34;;;;;;;;;;;;;;;8.07;61.02;99613.34;5972716;23;20343;-75
2023/03/16 10:10:24;;;;;;;;;;;;;;;8.19;61.28;99617.63;6046005;23;20260;-77
2023/03/16 10:21:12;;;;;;;;;;;;;;;8.09;61.25;99633.19;6058002;23;19939;-75
2023/03/16 10:23:45;;;;;;;;;;;;;;;8.30;61.40;99623.66;6056863;23;19917;-76
2023/03/16 10:38:57;;;;;;;;;;;;;;;7.80;60.79;99622.84;6091977;23;19917;-74
2023/03/16 10:45:42;;;;;;;;;;;;;;;8.07;60.98;99632.31;6085976;23;20004;-76
2023/03/16 10:57:34;;;;;;;;;;;;;;;7.82;60.90;99634.97;6115923;23;19980;-75
2023/03/16 11:00:56;;;;;;;;;;;;;;;7.76;60.77;99628.91;6116727;23;19940;-74
2023/03/16 11:04:01;;;;;;;;;;;;;;;7.66;60.39;99626.31;6074272;23;20309;-75
2023/03/16 11:06:57;;;;;;;;;;;;;;;7.18;60.81;99626.25;6116775;23;19916;-76
2023/03/16 11:09:49;;;;;;;;;;;;;;;7.01;60.25;99625.34;6118440;23;19921;-76
2023/03/16 11:12:54;;;;;;;;;;;;;;;6.75;60.98;99629.56;6093998;23;19913;-75
2023/03/16 11:19:36;;;;;;;;;;;;;;;7.16;61.71;99630.56;6089599;23;20367;-75
2023/03/16 11:26:55;;;;;;;;;;;;;;;7.38;60.46;99643.56;6026982;23;20054;-77
2023/03/16 11:29:44;;;;;;;;;;;;;;;7.36;61.32;99640.09;6006095;23;19922;-76
2023/03/16 11:37:15;;;;;;;;;;;;;;;7.34;61.09;99654.78;6027377;23;20417;-75
2023/03/16 11:39:53;;;;;;;;;;;;;;;7.37;61.36;99654.78;6054699;23;20433;-74
2023/03/16 11:43:04;;;;;;;;;;;;;;;7.46;60.95;99653.94;6036608;23;19940;-73
2023/03/16 11:45:39;;;;;;;;;;;;;;;7.52;61.00;99651.31;6056552;23;20000;-76
2023/03/16 11:48:31;;;;;;;;;;;;;;;7.53;60.92;99656.53;6010685;23;20004;-76
2023/03/16 11:59:38;;;;;;;;;;;;;;;6.92;61.53;99670.16;6115460;23;19964;-76
2023/03/16 12:02:49;;;;;;;;;;;;;;;7.03;61.60;99673.66;6115912;23;19923;-77
2023/03/16 12:06:00;;;;;;;;;;;;;;;7.05;61.16;99666.78;6091510;23;20349;-78
2023/03/16 12:08:41;;;;;;;;;;;;;;;7.05;61.11;99677.13;6026520;23;20013;-74
2023/03/16 12:11:39;;;;;;;;;;;;;;;7.09;61.56;99672.81;6006648;23;19970;-75
2023/03/16 12:15:44;;;;;;;;;;;;;;;7.03;61.13;99672.78;5995722;23;19933;-76
2023/03/16 12:18:34;;;;;;;;;;;;;;;6.98;61.64;99675.38;6006921;23;19925;-75
2023/03/16 12:21:14;;;;;;;;;;;;;;;6.95;61.09;99675.34;6121316;23;19967;-73
2023/03/16 12:24:00;;;;;;;;;;;;;;;6.94;61.28;99676.19;6121865;23;19928;-76
2023/03/16 12:26:39;;;;;;;;;;;;;;;6.81;60.54;99669.25;6098115;23;19940;-75
2023/03/16 12:30:58;;;;;;;;;;;;;;;6.48;61.11;99677.72;6054693;23;19929;-76
2023/03/16 12:38:19;;;;;;;;;;;;;;;6.01;62.32;99673.06;5980946;23;19928;-77
2023/03/16 12:44:55;;;;;;;;;;;;;;;6.10;63.29;99677.44;6003803;23;19924;-75
2023/03/16 12:47:27;;;;;;;;;;;;;;;6.08;63.12;99686.91;5998153;23;19918;-74
2023/03/16 12:50:10;;;;;;;;;;;;;;;6.21;63.66;99674.94;6000141;23;20008;-75
2023/03/16 12:52:46;;;;;;;;;;;;;;;6.25;62.89;99687.91;5977410;23;20271;-76
2023/03/16 13:00:08;;;;;;;;;;;;;;;6.28;62.66;99690.53;6058347;23;19948;-78
2023/03/16 13:02:54;;;;;;;;;;;;;;;6.16;62.27;99690.41;6066627;23;19917;-74
2023/03/16 13:05:53;;;;;;;;;;;;;;;5.90;63.21;99690.19;6090641;23;19916;-75
2023/03/16 13:08:24;;;;;;;;;;;;;;;5.86;63.64;99682.41;6090352;23;19916;-75
2023/03/16 13:15:03;;;;;;;;;;;;;;;5.92;63.24;99680.75;6114069;23;19916;-74
2023/03/16 13:17:31;;;;;;;;;;;;;;;6.01;63.05;99675.66;6087767;23;20180;-76
2023/03/16 13:20:00;;;;;;;;;;;;;;;6.10;63.11;99672.28;6088702;23;19932;-75
2023/03/16 13:22:31;;;;;;;;;;;;;;;6.17;62.89;99669.78;6088356;23;19917;-75
2023/03/16 13:25:11;;;;;;;;;;;;;;;6.06;63.27;99668.81;6088675;23;19920;-75
2023/03/16 13:31:40;;;;;;;;;;;;;;;6.28;63.49;99675.03;6114218;23;19917;-75
2023/03/16 13:34:17;;;;;;;;;;;;;;;6.32;63.29;99671.56;6114060;23;20088;-75
2023/03/16 13:37:03;;;;;;;;;;;;;;;6.35;63.03;99672.44;6044457;23;19964;-75
2023/03/16 13:52:17;;;;;;;;;;;;;;;6.00;63.21;99679.09;6093466;23;19948;-75
2023/03/16 13:55:21;;;;;;;;;;;;;;;5.92;62.52;99679.00;5984818;23;19992;-74
2023/03/16 13:58:54;;;;;;;;;;;;;;;5.95;62.80;99670.44;6029633;23;19932;-75
2023/03/16 14:01:57;;;;;;;;;;;;;;;6.01;62.62;99688.56;6029443;23;19933;-75
2023/03/16 14:09:45;;;;;;;;;;;;;;;6.01;63.25;99671.38;6004497;23;19929;-74
2023/03/16 14:16:47;;;;;;;;;;;;;;;5.88;62.70;99672.97;6022689;23;19933;-75
2023/03/16 14:19:24;;;;;;;;;;;;;;;5.60;63.06;99621.94;6019395;23;19945;-75
2023/03/16 14:21:51;;;;;;;;;;;;;;;5.88;63.06;99672.09;5996622;23;20405;-76
2023/03/16 14:28:43;;;;;;;;;;;;;;;5.76;62.88;99675.41;5981631;23;19918;-76
2023/03/16 14:35:14;;;;;;;;;;;;;;;5.62;63.42;99683.06;5989998;23;19925;-76
2023/03/16 14:37:45;;;;;;;;;;;;;;;5.61;63.14;99686.50;6001242;23;19914;-76
2023/03/16 14:56:54;;;;;;;;;;;;;;;5.50;62.71;99701.00;6087358;23;20006;-76
2023/03/16 15:03:59;;;;;;;;;;;;;;;5.45;62.94;99700.97;6116268;23;19996;-72
2023/03/16 15:06:31;;;;;;;;;;;;;;;5.45;63.25;99715.56;6115812;23;19980;-74
2023/03/16 15:21:24;;;;;;;;;;;;;;;5.43;63.42;99723.31;6015810;23;20330;-76
2023/03/16 15:33:51;;;;;;;;;;;;;;;5.46;63.82;99732.78;5971830;23;20787;-74
2023/03/16 15:42:14;;;;;;;;;;;;;;;5.41;63.37;99743.06;5949340;23;20960;-76
2023/03/16 15:46:09;;;;;;;;;;;;;;;5.41;63.09;99751.66;5965672;24;20021;-76
2023/03/16 15:49:18;;;;;;;;;;;;;;;5.44;63.19;99745.69;5988111;23;19995;-75
2023/03/16 15:52:27;;;;;;;;;;;;;;;5.50;63.74;99744.88;5969190;24;19922;-75
2023/03/16 15:58:42;;;;;;;;;;;;;;;5.30;62.83;99776.50;6054335;23;20333;-73
2023/03/16 16:02:05;;;;;;;;;;;;;;;5.34;63.58;99774.81;6005915;23;19918;-76
2023/03/16 16:05:33;;;;;;;;;;;;;;;5.41;64.06;99777.47;6024449;23;20396;-76
2023/03/16 16:08:32;;;;;;;;;;;;;;;5.43;63.35;99782.66;6044298;23;19925;-77
2023/03/16 16:15:28;;;;;;;;;;;;;;;5.41;63.60;99792.94;6065288;23;19921;-76
2023/03/16 16:18:41;;;;;;;;;;;;;;;5.27;63.57;99802.25;6063974;23;19923;-73
2023/03/16 16:21:57;;;;;;;;;;;;;;;5.28;63.62;99811.72;6029039;23;19939;-75
2023/03/16 16:28:31;;;;;;;;;;;;;;;5.38;63.28;99803.28;6055735;23;19981;-72
2023/03/16 16:31:41;;;;;;;;;;;;;;;5.28;62.46;99816.88;6055453;23;20029;-76
2023/03/16 16:49:38;;;;;;;;;;;;;;;5.43;63.42;99845.47;6057254;23;19980;-74
2023/03/16 16:52:45;;;;;;;;;;;;;;;5.43;63.58;99845.47;6041475;23;19924;-73
2023/03/16 16:55:12;;;;;;;;;;;;;;;5.43;63.73;99842.88;6055440;23;19917;-75
2023/03/16 17:03:28;;;;;;;;;;;;;;;5.37;63.83;99852.25;6088057;23;20764;-77
2023/03/16 17:18:06;;;;;;;;;;;;;;;5.32;62.54;99864.22;6022822;23;20306;-77
2023/03/16 18:03:22;;;;;;;;;;;;;;;5.31;63.69;99878.84;5915199;24;19986;-76
2023/03/16 19:14:16;;;;;;;;;;;;;;;4.82;65.28;99925.41;5879782;24;20010;-77
2023/03/16 19:27:01;;;;;;;;;;;;;;;4.69;64.69;99952.69;5792439;24;19987;-78
2023/03/16 19:39:24;;;;;;;;;;;;;;;4.77;65.78;99948.53;5865668;24;19957;-77
2023/03/16 21:02:37;;;;;;;;;;;;;;;4.57;65.53;100022.06;5868594;24;19980;-76
2023/03/16 21:05:19;;;;;;;;;;;;;;;4.58;64.87;100022.09;5868043;24;19995;-76
2023/03/16 21:09:10;;;;;;;;;;;;;;;4.56;64.88;100026.34;5816052;24;19931;-75
2023/03/16 21:12:59;;;;;;;;;;;;;;;4.61;65.37;100026.44;5810362;24;20025;-76
2023/03/16 21:21:47;;;;;;;;;;;;;;;4.58;65.14;100040.16;5978949;24;19925;-75
2023/03/16 21:29:27;;;;;;;;;;;;;;;4.52;64.96;100040.88;5978846;24;19925;-77
2023/03/16 21:33:31;;;;;;;;;;;;;;;4.52;65.14;100046.03;5950124;24;20357;-77
2023/03/16 21:36:22;;;;;;;;;;;;;;;4.55;64.85;100040.09;5941452;24;19915;-74
2023/03/16 21:44:54;;;;;;;;;;;;;;;4.48;64.40;100044.25;5926104;24;19925;-75
2023/03/16 21:52:38;;;;;;;;;;;;;;;4.56;64.20;100046.09;5939420;24;19922;-75
2023/03/16 22:00:37;;;;;;;;;;;;;;;4.51;64.44;100041.75;5978441;24;20372;-75
2023/03/16 22:08:20;;;;;;;;;;;;;;;4.41;64.21;100055.28;6012194;23;19924;-76
2023/03/16 22:15:58;;;;;;;;;;;;;;;4.33;64.20;100059.38;6022733;23;19968;-76
2023/03/16 22:19:22;;;;;;;;;;;;;;;4.29;64.45;100068.78;5992546;23;19963;-75
2023/03/16 22:30:21;;;;;;;;;;;;;;;4.11;64.61;100066.66;5978641;24;19925;-77
2023/03/16 22:40:53;;;;;;;;;;;;;;;4.11;64.53;100076.97;5898339;24;19951;-76
2023/03/16 22:48:36;;;;;;;;;;;;;;;4.04;64.33;100083.69;5978251;23;19925;-76
2023/03/16 22:51:44;;;;;;;;;;;;;;;4.07;64.61;100085.47;6022751;23;19999;-75
2023/03/16 23:16:01;;;;;;;;;;;;;;;4.02;64.22;100105.97;6043531;23;20052;-76
2023/03/16 23:19:47;;;;;;;;;;;;;;;4.04;63.96;100103.44;6075503;23;20289;-78
2023/03/16 23:23:46;;;;;;;;;;;;;;;4.03;64.01;100106.84;6036476;23;19928;-77
2023/03/16 23:40:43;;;;;;;;;;;;;;;4.01;63.28;100123.97;5914455;23;20370;-72
2023/03/16 23:43:40;;;;;;;;;;;;;;;3.99;63.81;100123.91;5950400;24;19921;-74
2023/03/16 23:46:40;;;;;;;;;;;;;;;3.96;63.65;100128.13;6013807;23;19918;-76
2023/03/16 23:50:45;;;;;;;;;;;;;;;3.88;63.89;100135.69;6014945;23;19925;-75
2023/03/16 23:53:34;;;;;;;;;;;;;;;3.82;63.83;100133.84;6010696;23;19918;-74
2023/03/16 23:56:09;;;;;;;;;;;;;;;3.81;63.68;100136.34;6010848;23;19982;-73
2023/03/16 23:58:37;;;;;;;;;;;;;;;3.83;63.50;100139.84;6010967;23;20258;-74
